Time;durP1;ratioP1;P1;durP2;ratioP2;P2;SDS_P1;SDS_P2;PMS_P1;PMS_P2;Temp;Humidity;BMP_temperature;BMP_pressure;BME280_temperature;BME280_humidity;BME280_pressure;Samples;Min_cycle;Max_cycle;Signal;HPM_P1;HPM_P2
2022/08/08 06:03:10;;;;;;;3.35;3.05;;;;;;;;;;6275759;22;20027;-89
2022/08/08 06:06:00;;;;;;;3.30;3.10;;;;;;;;;;6310024;22;20081;-89
2022/08/08 06:08:34;;;;;;;3.45;3.15;;;;;;;;;;6308510;22;20007;-91
2022/08/08 06:11:00;;;;;;;5.03;3.03;;;;;;;;;;6308499;22;20078;-89
2022/08/08 06:13:27;;;;;;;3.83;2.97;;;;;;;;;;6309831;22;20007;-91
2022/08/08 06:15:54;;;;;;;3.72;2.67;;;;;;;;;;6309835;22;20004;-91
2022/08/08 08:59:07;;;;;;;4.47;3.23;;;;;;;;;;6278927;22;20303;-89
2022/08/08 09:01:36;;;;;;;3.40;3.10;;;;;;;;;;6310289;22;20068;-88
2022/08/08 09:04:13;;;;;;;6.18;3.60;;;;;;;;;;6335736;22;20585;-93
2022/08/08 09:06:41;;;;;;;3.47;3.17;;;;;;;;;;6277255;22;20015;-87
2022/08/08 09:09:09;;;;;;;3.97;2.90;;;;;;;;;;6279205;22;19996;-86
2022/08/08 09:11:35;;;;;;;3.80;3.03;;;;;;;;;;6277263;22;20010;-87
2022/08/08 09:14:02;;;;;;;3.28;2.97;;;;;;;;;;6277370;22;20011;-87
2022/08/08 09:16:29;;;;;;;3.38;3.10;;;;;;;;;;6277876;22;20019;-89
2022/08/08 09:18:55;;;;;;;3.25;2.78;;;;;;;;;;6277893;22;20394;-88
2022/08/08 09:21:21;;;;;;;3.22;3.03;;;;;;;;;;6277804;22;20003;-90
2022/08/08 09:23:47;;;;;;;3.80;2.72;;;;;;;;;;6278309;22;20003;-90
2022/08/08 09:26:20;;;;;;;3.40;3.00;;;;;;;;;;6277908;22;20079;-89
2022/08/08 09:28:45;;;;;;;3.00;2.80;;;;;;;;;;6279150;22;20092;-90
2022/08/08 09:31:29;;;;;;;3.15;2.85;;;;;;;;;;6279164;22;19996;-90
2022/08/08 09:33:56;;;;;;;3.65;2.95;;;;;;;;;;6277916;22;20390;-90
2022/08/08 09:36:22;;;;;;;5.50;3.00;;;;;;;;;;6277865;22;20047;-89
2022/08/08 09:38:59;;;;;;;3.53;3.22;;;;;;;;;;6277475;22;20008;-92
2022/08/08 09:41:37;;;;;;;3.05;2.85;;;;;;;;;;6277916;22;20091;-90
2022/08/08 09:44:18;;;;;;;3.58;2.83;;;;;;;;;;6277863;22;20431;-91
2022/08/08 09:46:46;;;;;;;3.10;2.85;;;;;;;;;;6277747;22;20004;-90
2022/08/08 09:49:18;;;;;;;3.60;3.20;;;;;;;;;;6278203;22;20006;-92
2022/08/08 09:51:49;;;;;;;3.22;2.92;;;;;;;;;;6277254;22;20082;-91
2022/08/08 09:54:17;;;;;;;3.70;3.10;;;;;;;;;;6280670;22;19999;-86
2022/08/08 09:57:12;;;;;;;3.20;3.00;;;;;;;;;;6292368;22;19996;-93
2022/08/08 09:59:41;;;;;;;3.25;2.95;;;;;;;;;;6289651;22;20015;-92
2022/08/08 10:02:17;;;;;;;3.60;3.13;;;;;;;;;;6278951;22;20007;-89
2022/08/08 10:04:43;;;;;;;2.65;2.40;;;;;;;;;;6278200;22;20015;-93
2022/08/08 10:07:12;;;;;;;3.17;2.83;;;;;;;;;;6278491;22;20090;-90
2022/08/08 10:09:40;;;;;;;3.10;2.90;;;;;;;;;;6280625;22;20293;-93
2022/08/08 10:12:06;;;;;;;3.47;3.17;;;;;;;;;;6277667;22;20019;-91
2022/08/08 10:14:33;;;;;;;3.40;3.10;;;;;;;;;;6278950;22;20004;-89
2022/08/08 10:16:59;;;;;;;2.88;2.67;;;;;;;;;;6277863;22;20387;-92
2022/08/08 10:19:41;;;;;;;2.80;2.55;;;;;;;;;;6278605;22;20004;-91
2022/08/08 10:22:08;;;;;;;2.85;2.65;;;;;;;;;;6280461;22;20008;-92
2022/08/08 10:24:35;;;;;;;2.92;2.72;;;;;;;;;;6278154;22;20053;-92
2022/08/08 10:27:04;;;;;;;3.55;2.85;;;;;;;;;;6277630;22;20083;-92
2022/08/08 10:29:46;;;;;;;3.58;2.80;;;;;;;;;;6278099;22;20003;-91
2022/08/08 10:32:31;;;;;;;2.90;2.70;;;;;;;;;;6281960;22;20007;-95
2022/08/08 10:34:59;;;;;;;3.35;2.63;;;;;;;;;;6284907;22;20018;-96
2022/08/08 10:37:27;;;;;;;3.17;2.97;;;;;;;;;;6255230;22;20007;-95
2022/08/08 10:39:54;;;;;;;2.92;2.60;;;;;;;;;;6285859;22;20004;-95
2022/08/08 10:42:22;;;;;;;2.60;2.40;;;;;;;;;;6291933;22;20011;-96
2022/08/08 10:44:48;;;;;;;3.03;2.80;;;;;;;;;;6288153;22;19996;-95
2022/08/08 10:47:18;;;;;;;3.00;2.80;;;;;;;;;;6280346;22;20030;-95
2022/08/08 10:49:52;;;;;;;2.83;2.63;;;;;;;;;;6283008;22;20026;-94
2022/08/08 10:52:28;;;;;;;3.17;2.88;;;;;;;;;;6281525;22;20023;-95
2022/08/08 10:54:59;;;;;;;3.22;2.90;;;;;;;;;;6277503;22;20011;-94
2022/08/08 10:57:24;;;;;;;4.75;3.10;;;;;;;;;;6277622;22;20087;-94
2022/08/08 10:59:51;;;;;;;4.13;3.22;;;;;;;;;;6277857;22;20096;-94
2022/08/08 11:02:31;;;;;;;4.03;3.10;;;;;;;;;;6277841;22;20377;-96
2022/08/08 11:04:58;;;;;;;2.80;2.60;;;;;;;;;;6277612;22;20094;-94
2022/08/08 11:07:32;;;;;;;3.10;2.90;;;;;;;;;;6277821;22;20035;-94
2022/08/08 11:10:03;;;;;;;3.45;3.13;;;;;;;;;;6277649;22;20035;-94
2022/08/08 11:12:29;;;;;;;3.83;3.05;;;;;;;;;;6277219;22;20004;-94
2022/08/08 11:14:59;;;;;;;3.85;3.58;;;;;;;;;;6277034;22;20003;-95
2022/08/08 11:17:27;;;;;;;3.83;3.50;;;;;;;;;;6277373;22;20000;-94
2022/08/08 11:19:53;;;;;;;3.40;3.10;;;;;;;;;;6277310;22;19999;-95
2022/08/08 11:22:28;;;;;;;2.95;2.75;;;;;;;;;;6278171;22;20074;-95
2022/08/08 11:24:59;;;;;;;3.55;3.10;;;;;;;;;;6279257;22;20099;-92
2022/08/08 11:27:34;;;;;;;4.22;3.92;;;;;;;;;;6278820;22;19992;-95
2022/08/08 11:30:02;;;;;;;3.17;2.90;;;;;;;;;;6279051;22;20003;-94
2022/08/08 11:32:30;;;;;;;3.83;3.30;;;;;;;;;;6277995;22;20102;-89
2022/08/08 11:35:08;;;;;;;4.03;3.42;;;;;;;;;;6279094;22;20488;-95
2022/08/08 11:37:35;;;;;;;3.85;3.65;;;;;;;;;;6277917;22;20081;-90
2022/08/08 11:40:03;;;;;;;3.30;3.00;;;;;;;;;;6276247;22;20023;-87
2022/08/08 11:42:30;;;;;;;3.03;2.85;;;;;;;;;;6277956;22;20015;-89
2022/08/08 17:02:35;;;;;;;4.32;3.60;;;;;;;;;;6290348;22;20076;-88
2022/08/08 17:05:01;;;;;;;3.28;2.97;;;;;;;;;;6313739;22;20072;-88
2022/08/08 17:07:27;;;;;;;3.20;2.90;;;;;;;;;;6307114;22;20045;-93
2022/08/08 17:09:53;;;;;;;3.92;3.63;;;;;;;;;;6308151;22;20426;-92
2022/08/08 17:12:19;;;;;;;4.68;3.33;;;;;;;;;;6308681;22;19996;-91
2022/08/08 17:14:44;;;;;;;4.25;3.65;;;;;;;;;;6307353;22;20013;-86
2022/08/08 17:17:10;;;;;;;3.75;3.40;;;;;;;;;;6306716;22;20086;-90
2022/08/08 17:19:36;;;;;;;4.45;3.80;;;;;;;;;;6307290;22;20002;-91
2022/08/08 17:22:03;;;;;;;5.32;4.40;;;;;;;;;;6310659;22;20011;-90
2022/08/08 17:24:30;;;;;;;7.00;6.30;;;;;;;;;;6309747;22;20010;-90
2022/08/08 17:26:55;;;;;;;6.05;5.55;;;;;;;;;;6310694;22;20360;-86
2022/08/08 17:29:20;;;;;;;5.88;3.72;;;;;;;;;;6310754;22;20002;-90
2022/08/08 17:31:46;;;;;;;3.92;3.60;;;;;;;;;;6308524;22;20007;-88
2022/08/08 17:34:13;;;;;;;5.68;4.05;;;;;;;;;;6308855;22;20011;-90
2022/08/08 17:36:39;;;;;;;4.88;3.97;;;;;;;;;;6309369;22;20365;-91
2022/08/08 17:39:04;;;;;;;4.90;4.40;;;;;;;;;;6309012;22;20008;-92
2022/08/08 17:41:30;;;;;;;4.93;3.97;;;;;;;;;;6309252;22;20003;-90
2022/08/08 17:43:58;;;;;;;4.10;3.70;;;;;;;;;;6311132;22;20076;-92
2022/08/08 17:46:36;;;;;;;4.80;3.80;;;;;;;;;;6309502;22;20014;-91
2022/08/08 17:49:06;;;;;;;4.20;3.80;;;;;;;;;;6308605;22;20015;-89
2022/08/08 17:51:32;;;;;;;4.07;3.47;;;;;;;;;;6308782;22;20084;-88
2022/08/08 17:53:57;;;;;;;4.00;3.70;;;;;;;;;;6308189;22;20039;-85
2022/08/08 17:56:23;;;;;;;3.85;3.55;;;;;;;;;;6309813;22;20010;-88
2022/08/08 17:58:48;;;;;;;3.83;3.53;;;;;;;;;;6308226;22;20003;-87
2022/08/08 18:01:14;;;;;;;6.05;3.78;;;;;;;;;;6307864;22;20388;-86
2022/08/08 18:03:39;;;;;;;5.47;4.97;;;;;;;;;;6309407;22;20011;-86
2022/08/08 18:06:05;;;;;;;5.72;4.97;;;;;;;;;;6308334;22;20426;-88
2022/08/08 18:08:33;;;;;;;9.05;6.70;;;;;;;;;;6309897;22;19996;-87
2022/08/08 18:11:04;;;;;;;6.22;5.70;;;;;;;;;;6307997;22;20007;-87
2022/08/08 18:13:29;;;;;;;4.32;4.03;;;;;;;;;;6309783;22;19999;-87
2022/08/08 18:15:55;;;;;;;7.10;6.07;;;;;;;;;;6307951;22;20090;-87
2022/08/08 18:18:20;;;;;;;5.97;5.47;;;;;;;;;;6309622;22;19999;-89
2022/08/08 18:20:46;;;;;;;4.95;4.55;;;;;;;;;;6308559;22;20003;-92
2022/08/08 18:23:11;;;;;;;4.82;4.32;;;;;;;;;;6310000;22;20011;-91
2022/08/08 18:25:37;;;;;;;7.75;4.55;;;;;;;;;;6310549;22;20056;-87
2022/08/08 18:28:02;;;;;;;4.95;4.55;;;;;;;;;;6309515;22;19999;-89
2022/08/08 18:30:28;;;;;;;5.03;4.60;;;;;;;;;;6308086;22;20004;-89
2022/08/08 18:32:53;;;;;;;7.40;4.75;;;;;;;;;;6307697;22;20007;-88
2022/08/08 18:35:19;;;;;;;5.45;4.70;;;;;;;;;;6307324;22;20061;-88
2022/08/08 18:37:44;;;;;;;5.20;4.13;;;;;;;;;;6309435;22;20041;-87
2022/08/08 18:40:10;;;;;;;4.15;3.75;;;;;;;;;;6307210;22;20003;-87
2022/08/08 18:42:36;;;;;;;4.15;3.75;;;;;;;;;;6307632;22;20052;-88
2022/08/08 18:45:01;;;;;;;4.88;3.88;;;;;;;;;;6309141;22;20031;-89
2022/08/08 18:47:27;;;;;;;4.25;3.85;;;;;;;;;;6307618;22;20003;-89
2022/08/08 18:49:53;;;;;;;4.45;4.05;;;;;;;;;;6309378;22;20484;-89
2022/08/08 18:52:19;;;;;;;4.68;4.28;;;;;;;;;;6307498;22;20380;-90
2022/08/08 18:54:44;;;;;;;4.90;4.50;;;;;;;;;;6309120;22;20010;-94
2022/08/08 18:57:10;;;;;;;5.20;4.75;;;;;;;;;;6308295;22;20393;-88
2022/08/08 18:59:35;;;;;;;6.22;4.45;;;;;;;;;;6308998;22;20029;-88
2022/08/08 19:02:03;;;;;;;6.32;3.97;;;;;;;;;;6308933;22;20003;-88
2022/08/08 19:04:29;;;;;;;5.82;4.55;;;;;;;;;;6308653;22;20039;-88
2022/08/08 19:06:54;;;;;;;4.53;4.13;;;;;;;;;;6307463;22;20045;-88
2022/08/08 19:09:20;;;;;;;4.15;3.85;;;;;;;;;;6307138;22;19996;-88
2022/08/08 19:11:45;;;;;;;6.75;3.67;;;;;;;;;;6307087;22;20007;-88
2022/08/08 19:14:10;;;;;;;4.18;3.88;;;;;;;;;;6307378;22;20011;-88
2022/08/08 19:16:36;;;;;;;7.40;3.95;;;;;;;;;;6307405;22;20414;-87
2022/08/08 19:19:02;;;;;;;5.78;4.35;;;;;;;;;;6308782;22;20394;-88
2022/08/08 19:21:28;;;;;;;5.18;4.28;;;;;;;;;;6308623;22;20003;-88
2022/08/08 19:23:54;;;;;;;5.15;4.20;;;;;;;;;;6308819;22;20074;-89
2022/08/08 19:26:20;;;;;;;4.75;4.25;;;;;;;;;;6307183;22;20007;-88
2022/08/08 19:28:45;;;;;;;8.20;4.60;;;;;;;;;;6307232;22;20068;-88
2022/08/08 19:31:11;;;;;;;4.43;4.03;;;;;;;;;;6308834;22;20034;-87
2022/08/08 19:33:36;;;;;;;5.22;4.05;;;;;;;;;;6307007;22;20304;-87
2022/08/08 19:36:01;;;;;;;5.03;4.25;;;;;;;;;;6308780;22;20003;-88
2022/08/08 19:38:27;;;;;;;5.30;4.80;;;;;;;;;;6308232;22;20000;-88
2022/08/08 19:40:54;;;;;;;8.02;4.20;;;;;;;;;;6308830;22;20081;-88
2022/08/08 19:43:20;;;;;;;4.68;4.28;;;;;;;;;;6307871;22;20442;-87
2022/08/08 19:45:45;;;;;;;4.90;4.40;;;;;;;;;;6308392;22;20002;-88
2022/08/08 19:48:11;;;;;;;6.05;4.40;;;;;;;;;;6308729;22;20003;-88
2022/08/08 19:50:36;;;;;;;4.80;4.50;;;;;;;;;;6306901;22;20006;-88
2022/08/08 19:53:02;;;;;;;5.07;4.65;;;;;;;;;;6306939;22;20515;-89
2022/08/08 19:55:28;;;;;;;5.20;4.80;;;;;;;;;;6307185;22;20077;-89
2022/08/08 19:57:53;;;;;;;4.00;3.65;;;;;;;;;;6308652;22;20082;-86
2022/08/08 20:00:20;;;;;;;5.18;4.68;;;;;;;;;;6308415;22;20057;-87
2022/08/08 20:02:45;;;;;;;5.68;4.93;;;;;;;;;;6306975;22;20326;-87
2022/08/08 20:05:11;;;;;;;5.00;4.28;;;;;;;;;;6308172;22;20015;-88
2022/08/08 20:07:37;;;;;;;5.15;4.32;;;;;;;;;;6308567;22;20082;-87
2022/08/08 20:10:05;;;;;;;4.90;4.50;;;;;;;;;;6333122;22;20031;-88
2022/08/08 20:12:32;;;;;;;4.72;4.18;;;;;;;;;;6307106;22;20013;-87
2022/08/08 20:14:58;;;;;;;4.68;4.25;;;;;;;;;;6308784;22;20010;-89
2022/08/08 20:17:23;;;;;;;4.55;4.15;;;;;;;;;;6308065;22;20045;-89
2022/08/08 20:19:49;;;;;;;5.45;4.32;;;;;;;;;;6306956;22;20007;-88
2022/08/08 20:22:15;;;;;;;5.45;4.60;;;;;;;;;;6307000;22;20320;-88
2022/08/08 20:24:40;;;;;;;5.63;4.93;;;;;;;;;;6306872;22;20007;-90
2022/08/08 20:27:07;;;;;;;5.38;4.88;;;;;;;;;;6306796;22;20033;-91
2022/08/08 20:29:37;;;;;;;4.93;4.45;;;;;;;;;;6308417;22;20007;-85
2022/08/08 20:32:03;;;;;;;4.63;4.03;;;;;;;;;;6309053;22;20456;-92
2022/08/08 20:34:29;;;;;;;5.68;5.00;;;;;;;;;;6309212;22;19995;-91
2022/08/08 20:36:55;;;;;;;5.45;4.90;;;;;;;;;;6307622;22;19999;-91
2022/08/08 20:39:20;;;;;;;4.78;4.38;;;;;;;;;;6308665;22;20433;-90
2022/08/08 20:41:46;;;;;;;6.03;5.43;;;;;;;;;;6308819;22;20418;-90
2022/08/08 20:44:11;;;;;;;6.55;4.50;;;;;;;;;;6307551;22;20065;-88
2022/08/08 20:46:37;;;;;;;5.38;4.43;;;;;;;;;;6308850;22;19999;-92
2022/08/08 20:49:03;;;;;;;6.00;4.55;;;;;;;;;;6306984;22;20430;-88
2022/08/08 20:51:29;;;;;;;5.47;4.80;;;;;;;;;;6308329;22;20074;-89
2022/08/08 20:53:55;;;;;;;4.75;4.22;;;;;;;;;;6308615;22;20078;-88
2022/08/08 20:56:21;;;;;;;5.03;4.60;;;;;;;;;;6310759;22;20068;-90
2022/08/08 20:58:47;;;;;;;5.18;4.68;;;;;;;;;;6308933;22;20038;-88
2022/08/08 21:01:13;;;;;;;4.13;3.72;;;;;;;;;;6309128;22;20322;-89
2022/08/08 21:03:39;;;;;;;5.78;4.85;;;;;;;;;;6310404;22;20012;-89
2022/08/08 21:06:04;;;;;;;5.65;5.15;;;;;;;;;;6310441;22;20099;-89
2022/08/08 21:08:30;;;;;;;4.65;4.25;;;;;;;;;;6310308;22;20022;-89
2022/08/08 21:10:55;;;;;;;5.68;4.60;;;;;;;;;;6310191;22;20007;-88
2022/08/08 21:13:21;;;;;;;6.22;5.47;;;;;;;;;;6310232;22;20082;-91
2022/08/08 21:15:46;;;;;;;5.30;4.80;;;;;;;;;;6310147;22;20003;-88
2022/08/08 21:18:12;;;;;;;4.72;4.32;;;;;;;;;;6310294;22;20003;-89
2022/08/08 21:20:38;;;;;;;4.70;4.30;;;;;;;;;;6309016;22;20056;-89
2022/08/08 21:23:04;;;;;;;5.30;4.32;;;;;;;;;;6310226;22;19996;-88
2022/08/08 21:25:29;;;;;;;4.95;4.55;;;;;;;;;;6308522;22;20010;-88
2022/08/08 21:27:54;;;;;;;4.93;4.30;;;;;;;;;;6310077;22;20433;-88
2022/08/08 21:30:20;;;;;;;5.70;5.07;;;;;;;;;;6309915;22;20415;-89
2022/08/08 21:32:46;;;;;;;5.05;4.55;;;;;;;;;;6309922;22;20049;-89
2022/08/08 21:35:11;;;;;;;6.75;5.10;;;;;;;;;;6309757;22;20007;-88
2022/08/08 21:37:37;;;;;;;6.07;4.97;;;;;;;;;;6309895;22;20041;-87
2022/08/08 21:40:03;;;;;;;4.82;4.32;;;;;;;;;;6309829;22;20006;-88
2022/08/08 21:42:28;;;;;;;4.82;4.35;;;;;;;;;;6308090;22;20014;-88
2022/08/08 21:44:54;;;;;;;6.47;5.13;;;;;;;;;;6308216;22;20003;-88
2022/08/08 21:47:19;;;;;;;5.75;5.15;;;;;;;;;;6309897;22;20308;-88
2022/08/08 21:49:45;;;;;;;5.45;4.40;;;;;;;;;;6309945;22;20040;-88
2022/08/08 21:52:13;;;;;;;5.35;4.82;;;;;;;;;;6307902;22;20018;-92
2022/08/08 21:54:39;;;;;;;4.75;4.32;;;;;;;;;;6309994;22;20006;-89
